Bluffton, Iowa
Current Conditions -  °F | °C
As of 4:55 AM on Friday 31 Oct 2014 (Local Time) from KDEH Reporting Station
Clear Clear  
Wind Chill: 17°   Ceiling: Unl
Heat Index: 28°   Visibility: 10mi
Dew Point: 19°   Wind: 14mph
Humidity: 69%   Direction: 340°NNW
Pressure: 30.31"   Gusts: 25mph
Location:  43.3626°N, 91.8164°W
Report Text: KDEH 310955Z AUTO 34012G22KT 10SM CLR M02/M07 A3031 RMK AO2
Loading
Personal Weather Stations






























Interactive Weather Map
Tropical Storm Tracking
New forecast layout! Learn more

10-Day Weather Forecast

Advertisements
Track Severe Weather on mobile